createdAt,value
2018-12-06T00:00:16.762Z,8.80
2018-12-06T00:01:16.750Z,8.76
2018-12-06T00:02:16.728Z,8.74
2018-12-06T00:03:16.720Z,8.77
2018-12-06T00:04:16.680Z,8.70
2018-12-06T00:05:16.658Z,8.68
2018-12-06T00:06:16.633Z,8.74
2018-12-06T00:07:16.619Z,8.71
2018-12-06T00:08:16.611Z,8.76
2018-12-06T00:09:16.594Z,8.77
2018-12-06T00:10:16.554Z,8.77
2018-12-06T00:11:16.544Z,8.74
2018-12-06T00:12:16.521Z,8.70
2018-12-06T00:13:16.511Z,8.74
2018-12-06T00:14:16.495Z,8.70
2018-12-06T00:15:16.453Z,8.77
2018-12-06T00:16:16.443Z,8.70
2018-12-06T00:17:16.429Z,8.63
2018-12-06T00:18:16.389Z,8.68
2018-12-06T00:19:16.386Z,8.70
2018-12-06T00:20:16.342Z,8.76
2018-12-06T00:21:16.330Z,8.77
2018-12-06T00:22:16.307Z,8.74
2018-12-06T00:23:16.287Z,8.74
2018-12-06T00:24:16.308Z,8.73
2018-12-06T00:25:16.247Z,8.65
2018-12-06T00:26:16.237Z,8.73
2018-12-06T00:27:16.206Z,8.70
2018-12-06T00:28:16.182Z,8.70
2018-12-06T00:29:16.170Z,8.70
2018-12-06T00:30:16.157Z,8.73
2018-12-06T00:31:16.150Z,8.66
2018-12-06T00:32:16.106Z,8.65
2018-12-06T00:33:16.079Z,8.63
2018-12-06T00:34:16.067Z,8.70
2018-12-06T00:35:16.060Z,8.66
2018-12-06T00:36:16.015Z,8.73
2018-12-06T00:37:15.994Z,8.68
2018-12-06T00:38:15.977Z,8.73
2018-12-06T00:39:15.986Z,8.74
2018-12-06T00:40:15.945Z,8.73
2018-12-06T00:41:15.910Z,8.70
2018-12-06T00:42:15.902Z,8.61
2018-12-06T00:43:15.872Z,8.56
2018-12-06T00:44:15.868Z,8.61
2018-12-06T00:45:15.828Z,8.70
2018-12-06T00:46:15.806Z,8.55
2018-12-06T00:47:15.799Z,8.66
2018-12-06T00:48:15.795Z,8.55
2018-12-06T00:49:15.749Z,8.63
2018-12-06T00:50:15.724Z,8.55
2018-12-06T00:51:15.708Z,8.71
2018-12-06T00:52:15.683Z,8.58
2018-12-06T00:53:15.679Z,8.63
2018-12-06T00:54:15.647Z,8.65
2018-12-06T00:55:15.631Z,8.65
2018-12-06T00:56:15.599Z,8.68
2018-12-06T00:57:15.580Z,8.68
2018-12-06T00:58:15.589Z,8.61
2018-12-06T00:59:15.536Z,8.66
2018-12-06T01:00:15.525Z,8.70
2018-12-06T01:01:15.503Z,8.66
2018-12-06T01:02:15.492Z,8.70
2018-12-06T01:03:15.498Z,8.66
2018-12-06T01:04:15.439Z,8.68
2018-12-06T01:05:15.417Z,8.68
2018-12-06T01:06:15.397Z,8.66
2018-12-06T01:07:15.383Z,8.74
2018-12-06T01:08:15.361Z,8.68
2018-12-06T01:09:15.354Z,8.70
2018-12-06T01:10:15.313Z,8.61
2018-12-06T01:11:15.296Z,8.66
2018-12-06T01:12:15.295Z,8.71
2018-12-06T01:13:15.254Z,8.68
2018-12-06T01:14:15.328Z,8.61
2018-12-06T01:15:15.216Z,8.55
2018-12-06T01:16:15.209Z,8.53
2018-12-06T01:17:15.175Z,8.61
2018-12-06T01:18:15.149Z,8.59
2018-12-06T01:19:15.130Z,8.55
2018-12-06T01:20:15.121Z,8.71
2018-12-06T01:21:15.106Z,8.55
2018-12-06T01:22:15.093Z,8.66
2018-12-06T01:23:15.049Z,8.65
2018-12-06T01:24:15.074Z,8.66
2018-12-06T01:25:15.026Z,8.62
2018-12-06T01:26:15.006Z,8.68
2018-12-06T01:27:14.965Z,8.71
2018-12-06T01:28:14.949Z,8.68
2018-12-06T01:29:14.928Z,8.70
2018-12-06T01:30:14.906Z,8.73
2018-12-06T01:31:14.905Z,8.76
2018-12-06T01:33:56.862Z,8.76
2018-12-06T01:34:56.818Z,8.73
2018-12-06T01:35:56.799Z,8.76
2018-12-06T01:36:56.780Z,8.76
2018-12-06T01:37:56.789Z,8.83
2018-12-06T01:38:56.759Z,8.79
2018-12-06T01:39:56.715Z,8.80
2018-12-06T01:40:56.699Z,8.81
2018-12-06T01:41:56.674Z,8.80
2018-12-06T01:42:56.655Z,8.81
2018-12-06T01:43:56.650Z,8.87
2018-12-06T01:44:56.621Z,8.79
2018-12-06T01:45:56.596Z,8.81
2018-12-06T01:46:56.597Z,8.86
2018-12-06T01:47:56.551Z,8.80
2018-12-06T01:48:56.531Z,8.80
2018-12-06T01:49:56.511Z,8.87
2018-12-06T01:50:56.495Z,8.80
2018-12-06T01:51:56.471Z,8.79
2018-12-06T01:52:56.471Z,8.80
2018-12-06T01:53:56.431Z,8.79
2018-12-06T01:56:38.355Z,8.84
2018-12-06T01:57:38.338Z,8.84
2018-12-06T01:58:38.393Z,8.91
2018-12-06T01:59:38.284Z,8.80
2018-12-06T02:00:38.263Z,8.94
2018-12-06T02:01:38.237Z,8.77
2018-12-06T02:02:38.237Z,8.81
2018-12-06T02:03:38.200Z,8.84
2018-12-06T02:06:20.359Z,8.76
2018-12-06T02:07:20.325Z,8.92
2018-12-06T02:08:20.309Z,8.87
2018-12-06T02:09:20.287Z,8.81
2018-12-06T02:10:20.265Z,8.89
2018-12-06T02:11:20.262Z,8.76
2018-12-06T02:12:20.226Z,8.89
2018-12-06T02:13:20.223Z,8.77
2018-12-06T02:14:20.182Z,8.86
2018-12-06T02:15:20.163Z,8.71
2018-12-06T02:16:20.144Z,8.95
2018-12-06T02:17:20.122Z,8.84
2018-12-06T02:18:20.124Z,8.89
2018-12-06T02:19:20.080Z,8.83
2018-12-06T02:20:20.061Z,8.81
2018-12-06T02:21:20.037Z,8.76
2018-12-06T02:22:20.017Z,8.76
2018-12-06T02:23:20.027Z,8.65
2018-12-06T02:24:20.028Z,8.66
2018-12-06T02:25:19.956Z,8.71
2018-12-06T02:26:19.936Z,8.63
2018-12-06T02:27:19.915Z,8.71
2018-12-06T02:28:19.913Z,8.70
2018-12-06T02:29:19.871Z,8.61
2018-12-06T02:30:19.855Z,8.66
2018-12-06T02:31:19.833Z,8.74
2018-12-06T02:32:19.812Z,8.58
2018-12-06T02:33:19.831Z,8.58
2018-12-06T02:34:19.986Z,8.61
2018-12-06T02:35:19.782Z,8.58
2018-12-06T02:36:20.411Z,8.61
2018-12-06T02:37:19.710Z,8.58
2018-12-06T02:38:19.685Z,8.62
2018-12-06T02:39:19.685Z,8.53
2018-12-06T02:40:19.669Z,8.50
2018-12-06T02:41:19.637Z,8.50
2018-12-06T02:42:19.603Z,8.56
2018-12-06T02:43:19.589Z,8.53
2018-12-06T02:44:19.566Z,8.52
2018-12-06T02:45:19.562Z,8.55
2018-12-06T02:46:19.549Z,8.53
2018-12-06T02:47:19.506Z,8.48
2018-12-06T02:48:19.485Z,8.52
2018-12-06T02:49:19.473Z,8.52
2018-12-06T02:50:19.442Z,8.48
2018-12-06T02:51:19.437Z,8.52
2018-12-06T02:52:19.478Z,8.50
2018-12-06T02:53:19.382Z,8.50
2018-12-06T02:54:19.364Z,8.50
2018-12-06T02:55:19.339Z,8.52
2018-12-06T02:56:19.335Z,8.48
2018-12-06T02:57:19.300Z,8.47
2018-12-06T02:58:19.280Z,8.37
2018-12-06T02:59:19.259Z,8.44
2018-12-06T03:00:19.238Z,8.47
2018-12-06T03:01:19.236Z,8.41
2018-12-06T03:02:19.195Z,8.41
2018-12-06T03:03:19.188Z,8.41
2018-12-06T03:04:19.160Z,8.41
2018-12-06T03:05:19.135Z,8.45
2018-12-06T03:06:19.137Z,8.48
2018-12-06T03:07:19.093Z,8.43
2018-12-06T03:08:19.181Z,8.40
2018-12-06T03:09:19.054Z,8.41
2018-12-06T03:10:19.030Z,8.41
2018-12-06T03:11:19.009Z,8.41
2018-12-06T03:12:19.014Z,8.45
2018-12-06T03:13:18.982Z,8.37
2018-12-06T03:14:18.947Z,8.44
2018-12-06T03:15:18.926Z,8.38
2018-12-06T03:16:18.904Z,8.40
2018-12-06T03:17:18.887Z,8.44
2018-12-06T03:18:18.866Z,8.50
2018-12-06T03:19:18.859Z,8.43
2018-12-06T03:20:18.826Z,8.43
2018-12-06T03:21:18.802Z,8.40
2018-12-06T03:22:18.785Z,8.34
2018-12-06T03:23:18.790Z,8.38
2018-12-06T03:24:18.751Z,8.40
2018-12-06T03:25:18.741Z,8.37
2018-12-06T03:26:18.700Z,8.41
2018-12-06T03:27:18.680Z,8.40
2018-12-06T03:28:18.659Z,8.41
2018-12-06T03:29:18.643Z,8.41
2018-12-06T03:30:18.637Z,8.41
2018-12-06T03:31:18.607Z,8.44
2018-12-06T03:32:18.590Z,8.40
2018-12-06T03:33:18.556Z,8.38
2018-12-06T03:34:18.543Z,8.47
2018-12-06T03:35:18.615Z,8.40
2018-12-06T03:36:18.493Z,8.40
2018-12-06T03:37:18.471Z,8.45
2018-12-06T03:38:18.450Z,8.40
2018-12-06T03:39:18.433Z,8.38
2018-12-06T03:40:18.428Z,8.47
2018-12-06T03:41:18.392Z,8.41
2018-12-06T03:42:18.368Z,8.47
2018-12-06T03:43:18.347Z,8.52
2018-12-06T03:44:18.331Z,8.43
2018-12-06T03:45:18.307Z,8.40
2018-12-06T03:46:18.305Z,8.45
2018-12-06T03:47:18.267Z,8.47
2018-12-06T03:48:18.246Z,8.40
2018-12-06T03:49:18.310Z,8.48
2018-12-06T03:50:18.211Z,8.45
2018-12-06T03:51:18.186Z,8.43
2018-12-06T03:52:18.181Z,8.48
2018-12-06T03:53:18.149Z,8.52
2018-12-06T03:54:18.123Z,8.44
2018-12-06T03:55:18.105Z,8.50
2018-12-06T03:56:18.085Z,8.50
2018-12-06T03:57:18.091Z,8.55
2018-12-06T03:58:18.058Z,8.52
2018-12-06T03:59:18.022Z,8.48
2018-12-06T04:00:18.002Z,8.55
2018-12-06T04:01:17.982Z,8.55
2018-12-06T04:02:17.961Z,8.52
2018-12-06T04:03:17.958Z,8.48
2018-12-06T04:04:17.930Z,8.48
2018-12-06T04:05:17.900Z,8.45
2018-12-06T04:06:17.891Z,8.48
2018-12-06T04:07:17.854Z,8.55
2018-12-06T04:08:17.844Z,8.56
2018-12-06T04:09:17.834Z,8.50
2018-12-06T04:10:17.801Z,8.58
2018-12-06T04:11:17.783Z,8.55
2018-12-06T04:12:17.753Z,8.56
2018-12-06T04:13:17.739Z,8.53
2018-12-06T04:14:17.741Z,8.53
2018-12-06T04:15:17.694Z,8.59
2018-12-06T04:16:17.674Z,8.56
2018-12-06T04:17:17.658Z,8.59
2018-12-06T04:18:17.638Z,8.52
2018-12-06T04:19:17.677Z,8.59
2018-12-06T04:20:17.610Z,8.63
2018-12-06T04:21:17.570Z,8.56
2018-12-06T04:22:17.548Z,8.61
2018-12-06T04:23:17.572Z,8.56
2018-12-06T04:24:17.511Z,8.61
2018-12-06T04:25:17.506Z,8.55
2018-12-06T04:26:17.476Z,8.56
2018-12-06T04:27:17.452Z,8.55
2018-12-06T04:28:17.430Z,8.56
2018-12-06T04:29:17.412Z,8.62
2018-12-06T04:30:17.415Z,8.71
2018-12-06T04:31:17.392Z,8.70
2018-12-06T04:32:17.592Z,8.66
2018-12-06T04:33:17.330Z,8.73
2018-12-06T04:34:17.310Z,8.63
2018-12-06T04:35:17.288Z,8.63
2018-12-06T04:36:17.282Z,8.76
2018-12-06T04:37:17.249Z,8.73
2018-12-06T04:38:17.226Z,8.74
2018-12-06T04:39:17.207Z,8.80
2018-12-06T04:40:17.189Z,8.76
2018-12-06T04:41:17.186Z,8.73
2018-12-06T04:42:17.159Z,8.76
2018-12-06T04:43:17.123Z,8.77
2018-12-06T04:44:17.106Z,8.79
2018-12-06T04:45:17.088Z,8.76
2018-12-06T04:46:17.063Z,8.71
2018-12-06T04:47:17.057Z,8.84
2018-12-06T04:48:21.879Z,8.86
2018-12-06T04:49:17.002Z,8.80
2018-12-06T04:50:16.985Z,8.76
2018-12-06T04:51:16.966Z,8.89
2018-12-06T04:52:16.961Z,8.81
2018-12-06T04:53:16.934Z,8.81
2018-12-06T04:54:16.907Z,8.92
2018-12-06T04:55:16.880Z,8.77
2018-12-06T04:56:16.861Z,8.80
2018-12-06T04:57:16.859Z,8.81
2018-12-06T04:58:16.849Z,8.83
2018-12-06T04:59:16.810Z,8.87
2018-12-06T05:00:16.790Z,8.84
2018-12-06T05:01:16.760Z,8.87
2018-12-06T05:02:18.405Z,8.89
2018-12-06T05:03:16.751Z,8.92
2018-12-06T05:04:16.704Z,8.87
2018-12-06T05:05:16.681Z,8.83
2018-12-06T05:06:16.663Z,8.96
2018-12-06T05:07:16.637Z,8.86
2018-12-06T05:08:16.622Z,8.94
2018-12-06T05:09:16.621Z,8.99
2018-12-06T05:10:16.581Z,8.94
2018-12-06T05:11:16.563Z,8.99
2018-12-06T05:12:16.540Z,8.92
2018-12-06T05:13:16.518Z,9.02
2018-12-06T05:14:16.503Z,8.99
2018-12-06T05:15:16.500Z,9.04
2018-12-06T05:16:16.465Z,9.08
2018-12-06T05:17:16.442Z,9.01
2018-12-06T05:18:16.418Z,9.08
2018-12-06T05:19:16.402Z,9.01
2018-12-06T05:20:16.401Z,8.99
2018-12-06T05:21:16.362Z,9.10
2018-12-06T05:22:16.337Z,9.14
2018-12-06T05:23:16.323Z,9.04
2018-12-06T05:24:16.301Z,9.17
2018-12-06T05:25:16.283Z,9.13
2018-12-06T05:26:16.280Z,9.10
2018-12-06T05:27:16.240Z,9.15
2018-12-06T05:28:16.217Z,9.18
2018-12-06T05:29:16.218Z,9.13
2018-12-06T05:30:16.180Z,9.14
2018-12-06T05:31:16.160Z,9.05
2018-12-06T05:32:16.144Z,9.10
2018-12-06T05:33:16.119Z,9.08
2018-12-06T05:34:16.112Z,9.20
2018-12-06T05:35:16.952Z,9.13
2018-12-06T05:36:16.055Z,9.15
2018-12-06T05:37:16.046Z,9.14
2018-12-06T05:38:16.021Z,9.17
2018-12-06T05:39:16.015Z,9.14
2018-12-06T05:40:15.979Z,9.13
2018-12-06T05:41:15.975Z,9.20
2018-12-06T05:42:15.936Z,9.14
2018-12-06T05:43:15.937Z,9.17
2018-12-06T05:44:15.899Z,9.20
2018-12-06T05:45:15.876Z,9.21
2018-12-06T05:46:15.861Z,9.26
2018-12-06T05:47:15.839Z,9.20
2018-12-06T05:48:15.827Z,9.21
2018-12-06T05:49:15.814Z,9.26
2018-12-06T05:50:15.775Z,9.24
2018-12-06T05:51:15.756Z,9.20
2018-12-06T05:52:15.735Z,9.21
2018-12-06T05:53:15.744Z,9.14
2018-12-06T05:54:15.696Z,9.24
2018-12-06T05:55:15.680Z,9.20
2018-12-06T05:56:15.652Z,9.15
2018-12-06T05:57:15.660Z,9.23
2018-12-06T05:58:15.614Z,9.15
2018-12-06T05:59:15.598Z,9.26
2018-12-06T06:00:15.577Z,9.24
2018-12-06T06:01:15.573Z,9.31
2018-12-06T06:02:15.534Z,9.24
2018-12-06T06:03:15.518Z,9.31
2018-12-06T06:04:15.491Z,9.29
2018-12-06T06:05:15.484Z,9.28
2018-12-06T06:06:15.481Z,9.23
2018-12-06T06:07:15.441Z,9.29
2018-12-06T06:08:15.417Z,9.31
2018-12-06T06:09:15.394Z,9.29
2018-12-06T06:10:15.378Z,9.28
2018-12-06T06:11:15.353Z,9.31
2018-12-06T06:12:15.355Z,9.36
2018-12-06T06:13:15.326Z,9.35
2018-12-06T06:14:15.955Z,9.35
2018-12-06T06:15:15.271Z,9.42
2018-12-06T06:16:15.272Z,9.43
2018-12-06T06:17:15.238Z,9.46
2018-12-06T06:18:15.233Z,9.39
2018-12-06T06:19:15.197Z,9.48
2018-12-06T06:20:15.177Z,9.40
2018-12-06T06:21:15.156Z,9.50
2018-12-06T06:22:15.139Z,9.47
2018-12-06T06:23:15.139Z,9.48
2018-12-06T06:24:15.102Z,9.42
2018-12-06T06:25:15.080Z,9.40
2018-12-06T06:26:15.064Z,9.48
2018-12-06T06:27:15.054Z,9.48
2018-12-06T06:28:15.031Z,9.46
2018-12-06T06:29:14.995Z,9.54
2018-12-06T06:30:14.978Z,9.51
2018-12-06T06:31:14.959Z,9.50
2018-12-06T06:32:14.951Z,9.51
2018-12-06T06:33:14.918Z,9.58
2018-12-06T06:34:14.920Z,9.60
2018-12-06T06:35:14.874Z,9.58
2018-12-06T06:36:14.864Z,9.65
2018-12-06T06:37:14.839Z,9.57
2018-12-06T06:38:14.818Z,9.65
2018-12-06T06:39:14.812Z,9.60
2018-12-06T06:40:14.780Z,9.75
2018-12-06T06:41:14.763Z,9.74
2018-12-06T06:42:14.740Z,9.72
2018-12-06T06:43:14.719Z,9.78
2018-12-06T06:44:14.704Z,9.78
2018-12-06T06:45:14.693Z,9.72
2018-12-06T06:46:14.657Z,9.72
2018-12-06T06:47:14.649Z,9.72
2018-12-06T06:48:14.625Z,9.71
2018-12-06T06:49:14.597Z,9.81
2018-12-06T06:50:14.598Z,9.86
2018-12-06T06:51:14.576Z,9.86
2018-12-06T06:52:14.541Z,9.87
2018-12-06T06:53:14.533Z,9.87
2018-12-06T06:54:14.509Z,9.87
2018-12-06T06:55:14.481Z,9.90
2018-12-06T06:56:14.479Z,9.90
2018-12-06T06:57:14.447Z,9.89
2018-12-06T06:58:14.424Z,9.93
2018-12-06T06:59:14.411Z,10.04
2018-12-06T07:00:14.386Z,9.94
2018-12-06T07:01:14.392Z,10.04
2018-12-06T07:02:14.346Z,9.99
2018-12-06T07:03:14.327Z,10.04
2018-12-06T07:04:14.309Z,10.01
2018-12-06T07:05:14.366Z,10.17
2018-12-06T07:06:14.271Z,10.14
2018-12-06T07:07:14.278Z,10.27
2018-12-06T07:08:14.223Z,10.27
2018-12-06T07:09:14.234Z,10.45
2018-12-06T07:10:14.187Z,10.47
2018-12-06T07:11:14.171Z,10.52
2018-12-06T07:12:14.167Z,10.45
2018-12-06T07:13:14.133Z,10.48
2018-12-06T07:14:14.117Z,10.52
2018-12-06T07:15:14.103Z,10.59
2018-12-06T07:16:14.077Z,10.68
2018-12-06T07:17:14.073Z,10.70
2018-12-06T07:18:14.059Z,10.82
2018-12-06T07:19:14.038Z,10.82
2018-12-06T07:20:14.007Z,10.86
2018-12-06T07:21:13.975Z,10.89
2018-12-06T07:22:13.955Z,10.85
2018-12-06T07:23:13.955Z,10.86
2018-12-06T07:24:13.936Z,10.86
2018-12-06T07:25:13.896Z,11.02
2018-12-06T07:26:13.872Z,11.04
2018-12-06T07:27:14.456Z,11.19
2018-12-06T07:28:13.840Z,11.10
2018-12-06T07:29:13.835Z,11.18
2018-12-06T07:30:13.805Z,11.24
2018-12-06T07:31:13.787Z,11.18
2018-12-06T07:32:13.773Z,11.25
2018-12-06T07:33:13.742Z,11.28
2018-12-06T07:34:13.742Z,11.22
2018-12-06T07:35:13.701Z,11.24
2018-12-06T07:36:13.683Z,11.27
2018-12-06T07:37:13.666Z,11.28
2018-12-06T07:38:13.646Z,11.28
2018-12-06T07:39:13.646Z,11.42
2018-12-06T07:40:13.615Z,11.36
2018-12-06T07:41:13.606Z,11.43
2018-12-06T07:42:13.585Z,11.42
2018-12-06T07:43:13.550Z,11.28
2018-12-06T07:44:13.533Z,11.37
2018-12-06T07:45:13.509Z,11.36
2018-12-06T07:46:13.510Z,11.35
2018-12-06T07:47:13.472Z,11.36
2018-12-06T07:48:13.450Z,11.32
2018-12-06T07:49:13.437Z,11.46
2018-12-06T07:50:13.413Z,11.36
2018-12-06T07:51:13.416Z,11.46
2018-12-06T07:52:13.379Z,11.42
2018-12-06T07:53:13.362Z,11.46
2018-12-06T07:54:14.091Z,11.35
2018-12-06T07:55:13.318Z,11.43
2018-12-06T07:56:13.306Z,11.36
2018-12-06T07:57:13.317Z,11.32
2018-12-06T07:58:13.263Z,11.37
2018-12-06T07:59:13.246Z,11.43
2018-12-06T08:00:13.231Z,11.42
2018-12-06T08:01:13.212Z,11.52
2018-12-06T08:02:13.187Z,11.51
2018-12-06T08:03:13.227Z,11.54
2018-12-06T08:04:13.147Z,11.46
2018-12-06T08:05:13.153Z,11.52
2018-12-06T08:06:13.111Z,11.46
2018-12-06T08:07:13.107Z,11.52
2018-12-06T08:08:13.098Z,11.49
2018-12-06T08:09:13.054Z,11.58
2018-12-06T08:10:13.037Z,11.47
2018-12-06T08:11:13.014Z,11.60
2018-12-06T08:12:13.024Z,11.58
2018-12-06T08:13:13.003Z,11.58
2018-12-06T08:14:12.953Z,11.60
2018-12-06T08:15:14.443Z,11.67
2018-12-06T08:16:12.925Z,11.55
2018-12-06T08:17:12.899Z,11.60
2018-12-06T08:18:12.894Z,11.64
2018-12-06T08:19:13.938Z,11.61
2018-12-06T08:20:12.843Z,11.60
2018-12-06T08:21:12.828Z,11.62
2018-12-06T08:22:12.803Z,11.62
2018-12-06T08:23:12.784Z,11.65
2018-12-06T08:24:12.806Z,11.72
2018-12-06T08:25:12.748Z,11.72
2018-12-06T08:26:12.735Z,11.67
2018-12-06T08:27:12.710Z,11.67
2018-12-06T08:28:12.691Z,11.70
2018-12-06T08:29:12.666Z,11.69
2018-12-06T08:30:12.679Z,11.67
2018-12-06T08:31:12.653Z,11.73
2018-12-06T08:32:12.615Z,11.67
2018-12-06T08:33:12.599Z,11.80
2018-12-06T08:34:12.594Z,11.83
2018-12-06T08:35:12.557Z,11.80
2018-12-06T08:36:12.553Z,11.80
2018-12-06T08:37:12.528Z,11.82
2018-12-06T08:38:12.502Z,11.80
2018-12-06T08:39:12.481Z,11.82
2018-12-06T08:40:12.481Z,11.83
2018-12-06T08:41:12.445Z,11.90
2018-12-06T08:42:12.428Z,11.85
2018-12-06T08:43:12.417Z,11.91
2018-12-06T08:44:12.394Z,11.85
2018-12-06T08:45:12.386Z,11.94
2018-12-06T08:46:12.348Z,11.88
2018-12-06T08:47:12.332Z,11.83
2018-12-06T08:48:12.313Z,11.94
2018-12-06T08:49:12.310Z,11.82
2018-12-06T08:50:12.276Z,11.83
2018-12-06T08:51:12.280Z,11.88
2018-12-06T08:52:12.235Z,11.86
2018-12-06T08:53:12.216Z,12.02
2018-12-06T08:54:12.196Z,11.91
2018-12-06T08:55:12.179Z,11.91
2018-12-06T08:56:12.180Z,11.99
2018-12-06T08:57:12.164Z,11.99
2018-12-06T08:58:12.116Z,11.96
2018-12-06T08:59:12.102Z,11.95
2018-12-06T09:00:12.090Z,12.04
2018-12-06T09:01:12.071Z,12.04
2018-12-06T09:02:12.053Z,12.04
2018-12-06T09:03:12.060Z,12.13
2018-12-06T09:04:12.098Z,12.12
2018-12-06T09:05:12.012Z,12.12
2018-12-06T09:06:11.972Z,12.21
2018-12-06T09:07:11.955Z,12.19
2018-12-06T09:08:11.957Z,12.13
2018-12-06T09:09:11.923Z,12.19
2018-12-06T09:10:11.904Z,12.28
2018-12-06T09:11:11.888Z,12.29
2018-12-06T09:12:11.879Z,12.27
2018-12-06T09:13:11.843Z,12.34
2018-12-06T09:14:11.842Z,12.34
2018-12-06T09:15:11.808Z,12.29
2018-12-06T09:16:11.788Z,12.34
2018-12-06T09:17:11.769Z,12.45
2018-12-06T09:18:11.751Z,12.41
2018-12-06T09:19:11.738Z,12.49
2018-12-06T09:20:11.727Z,12.49
2018-12-06T09:21:11.696Z,12.41
2018-12-06T09:22:11.671Z,12.50
2018-12-06T09:23:11.680Z,12.38
2018-12-06T09:24:11.642Z,12.49
2018-12-06T09:25:11.621Z,12.41
2018-12-06T09:26:11.616Z,12.47
2018-12-06T09:27:11.581Z,12.60
2018-12-06T09:28:11.565Z,12.56
2018-12-06T09:29:11.567Z,12.54
2018-12-06T09:30:11.526Z,12.59
2018-12-06T09:31:12.450Z,12.54
2018-12-06T09:32:11.493Z,12.57
2018-12-06T09:33:11.474Z,12.56
2018-12-06T09:34:11.456Z,12.67
2018-12-06T09:35:11.450Z,12.59
2018-12-06T09:36:11.420Z,12.65
2018-12-06T09:37:11.399Z,12.54
2018-12-06T09:38:11.381Z,12.65
2018-12-06T09:39:11.381Z,12.68
2018-12-06T09:40:11.362Z,12.64
2018-12-06T09:41:11.325Z,12.60
2018-12-06T09:42:11.306Z,12.67
2018-12-06T09:43:11.285Z,12.68
2018-12-06T09:44:11.288Z,12.60
2018-12-06T09:45:11.270Z,12.68
2018-12-06T09:46:11.233Z,12.68
2018-12-06T09:47:11.229Z,12.68
2018-12-06T09:48:11.961Z,12.67
2018-12-06T09:49:11.199Z,12.68
2018-12-06T09:50:11.172Z,12.70
2018-12-06T09:51:11.142Z,12.71
2018-12-06T09:52:11.152Z,12.77
2018-12-06T09:53:11.107Z,12.70
2018-12-06T09:54:11.084Z,12.71
2018-12-06T09:55:11.088Z,12.79
2018-12-06T09:56:11.052Z,12.82
2018-12-06T09:57:11.049Z,12.83
2018-12-06T09:58:11.017Z,12.83
2018-12-06T09:59:10.996Z,12.86
2018-12-06T10:00:10.998Z,12.90
2018-12-06T10:01:10.959Z,12.92
2018-12-06T10:02:10.940Z,13.00
2018-12-06T10:03:10.946Z,13.00
2018-12-06T10:04:10.926Z,13.03
2018-12-06T10:05:10.893Z,13.05
2018-12-06T10:06:10.886Z,12.97
2018-12-06T10:07:10.866Z,13.03
2018-12-06T10:08:10.837Z,13.00
2018-12-06T10:09:10.822Z,13.07
2018-12-06T10:10:10.796Z,13.08
2018-12-06T10:11:10.778Z,13.14
2018-12-06T10:12:10.793Z,13.11
2018-12-06T10:13:10.742Z,13.11
2018-12-06T10:14:10.724Z,13.10
2018-12-06T10:15:10.702Z,13.10
2018-12-06T10:16:10.687Z,13.17
2018-12-06T10:17:10.675Z,13.15
2018-12-06T10:18:10.670Z,13.10
2018-12-06T10:19:10.635Z,13.30
2018-12-06T10:20:10.617Z,13.05
2018-12-06T10:21:10.598Z,13.29
2018-12-06T10:22:10.578Z,13.29
2018-12-06T10:23:10.561Z,13.22
2018-12-06T10:24:10.556Z,13.17
2018-12-06T10:25:10.531Z,13.14
2018-12-06T10:26:10.508Z,13.14
2018-12-06T10:27:10.504Z,13.19
2018-12-06T10:28:10.470Z,13.17
2018-12-06T10:29:10.469Z,13.15
2018-12-06T10:30:10.430Z,13.17
2018-12-06T10:31:10.427Z,13.19
2018-12-06T10:32:10.422Z,13.20
2018-12-06T10:33:10.385Z,13.23
2018-12-06T10:34:10.362Z,13.14
2018-12-06T10:35:10.364Z,13.15
2018-12-06T10:36:10.326Z,13.19
2018-12-06T10:37:10.308Z,13.10
2018-12-06T10:38:10.289Z,13.22
2018-12-06T10:39:10.273Z,13.12
2018-12-06T10:40:10.284Z,13.11
2018-12-06T10:41:10.238Z,13.25
2018-12-06T10:42:10.237Z,13.14
2018-12-06T10:43:10.200Z,13.22
2018-12-06T10:44:10.179Z,13.15
2018-12-06T10:45:10.166Z,13.11
2018-12-06T10:46:10.163Z,13.14
2018-12-06T10:47:10.127Z,13.10
2018-12-06T10:48:10.124Z,13.14
2018-12-06T10:49:10.094Z,13.11
2018-12-06T10:50:10.074Z,13.12
2018-12-06T10:51:10.074Z,13.15
2018-12-06T10:52:10.055Z,13.14
2018-12-06T10:53:10.036Z,13.12
2018-12-06T10:54:10.002Z,13.11
2018-12-06T10:55:09.978Z,13.10
2018-12-06T10:56:09.976Z,13.08
2018-12-06T10:57:09.966Z,13.11
2018-12-06T10:58:09.933Z,13.03
2018-12-06T10:59:09.913Z,13.05
2018-12-06T11:00:09.898Z,13.07
2018-12-06T11:01:09.892Z,13.04
2018-12-06T11:02:09.854Z,12.96
2018-12-06T11:03:09.846Z,13.05
2018-12-06T11:04:09.822Z,12.97
2018-12-06T11:05:09.803Z,13.01
2018-12-06T11:06:09.832Z,13.01
2018-12-06T11:07:09.765Z,13.01
2018-12-06T11:08:09.759Z,12.93
2018-12-06T11:09:09.732Z,12.92
2018-12-06T11:10:09.714Z,12.93
2018-12-06T11:11:09.693Z,12.95
2018-12-06T11:12:09.695Z,13.04
2018-12-06T11:13:09.665Z,13.05
2018-12-06T11:14:09.664Z,13.00
2018-12-06T11:15:09.625Z,13.04
2018-12-06T11:16:09.612Z,13.07
2018-12-06T11:17:09.616Z,13.07
2018-12-06T11:18:09.581Z,12.97
2018-12-06T11:19:09.551Z,13.03
2018-12-06T11:20:09.531Z,13.01
2018-12-06T11:21:09.516Z,13.11
2018-12-06T11:22:09.487Z,13.23
2018-12-06T11:23:09.501Z,13.15
2018-12-06T11:24:09.456Z,13.11
2018-12-06T11:25:09.470Z,13.12
2018-12-06T11:26:09.420Z,13.12
2018-12-06T11:27:09.432Z,13.14
2018-12-06T11:28:09.386Z,13.10
2018-12-06T11:29:09.372Z,13.12
2018-12-06T11:30:09.352Z,13.11
2018-12-06T11:31:09.346Z,13.08
2018-12-06T11:32:09.312Z,13.10
2018-12-06T11:33:09.298Z,13.11
2018-12-06T11:34:09.290Z,13.15
2018-12-06T11:35:09.259Z,13.19
2018-12-06T11:36:09.245Z,13.11
2018-12-06T11:37:09.221Z,13.10
2018-12-06T11:38:09.198Z,13.08
2018-12-06T11:39:09.199Z,13.11
2018-12-06T11:40:09.185Z,12.95
2018-12-06T11:41:09.165Z,13.01
2018-12-06T11:42:09.159Z,13.00
2018-12-06T11:43:09.114Z,13.11
2018-12-06T11:44:09.096Z,13.05
2018-12-06T11:45:09.089Z,13.14
2018-12-06T11:46:09.056Z,13.10
2018-12-06T11:47:09.058Z,13.08
2018-12-06T11:48:09.018Z,13.04
2018-12-06T11:49:09.001Z,12.96
2018-12-06T11:50:09.001Z,12.96
2018-12-06T11:51:08.970Z,12.96
2018-12-06T11:52:09.775Z,13.05
2018-12-06T11:53:08.936Z,12.92
2018-12-06T11:54:08.919Z,12.90
2018-12-06T11:55:08.901Z,12.92
2018-12-06T11:56:08.885Z,12.90
2018-12-06T11:57:08.856Z,12.85
2018-12-06T11:58:11.599Z,12.89
2018-12-06T11:59:08.821Z,12.79
2018-12-06T12:00:08.819Z,12.89
2018-12-06T12:01:08.783Z,12.83
2018-12-06T12:02:10.192Z,12.90
2018-12-06T12:03:08.747Z,12.85
2018-12-06T12:04:08.729Z,12.93
2018-12-06T12:05:08.707Z,12.83
2018-12-06T12:06:08.702Z,12.87
2018-12-06T12:07:08.681Z,13.05
2018-12-06T12:08:08.670Z,13.04
2018-12-06T12:09:08.643Z,12.97
2018-12-06T12:10:08.620Z,13.03
2018-12-06T12:11:08.633Z,13.08
2018-12-06T12:12:08.582Z,13.03
2018-12-06T12:13:08.588Z,13.05
2018-12-06T12:14:08.548Z,13.11
2018-12-06T12:15:08.526Z,13.05
2018-12-06T12:16:08.509Z,13.10
2018-12-06T12:17:08.494Z,13.08
2018-12-06T12:18:08.471Z,13.14
2018-12-06T12:19:08.473Z,13.10
2018-12-06T12:20:08.432Z,13.08
2018-12-06T12:21:08.438Z,13.12
2018-12-06T12:22:08.405Z,13.08
2018-12-06T12:23:08.410Z,13.05
2018-12-06T12:24:08.365Z,13.10
2018-12-06T12:25:08.349Z,13.11
2018-12-06T12:26:08.330Z,13.11
2018-12-06T12:27:08.311Z,13.08
2018-12-06T12:28:08.309Z,13.08
2018-12-06T12:29:08.292Z,13.15
2018-12-06T12:30:08.255Z,13.11
2018-12-06T12:31:08.237Z,13.04
2018-12-06T12:32:08.232Z,13.03
2018-12-06T12:33:08.215Z,13.12
2018-12-06T12:34:08.202Z,13.11
2018-12-06T12:35:08.163Z,13.08
2018-12-06T12:36:08.154Z,13.11
2018-12-06T12:37:08.129Z,13.19
2018-12-06T12:38:08.106Z,13.20
2018-12-06T12:39:08.094Z,13.32
2018-12-06T12:40:08.088Z,13.22
2018-12-06T12:41:08.056Z,13.33
2018-12-06T12:42:08.040Z,13.32
2018-12-06T12:43:08.025Z,13.29
2018-12-06T12:44:07.998Z,13.33
2018-12-06T12:45:07.997Z,13.36
2018-12-06T12:46:07.961Z,13.41
2018-12-06T12:47:07.949Z,13.44
2018-12-06T12:48:07.945Z,13.41
2018-12-06T12:49:07.913Z,13.42
2018-12-06T12:50:07.913Z,13.44
2018-12-06T12:51:07.874Z,13.45
2018-12-06T12:52:07.860Z,13.39
2018-12-06T12:53:07.850Z,13.49
2018-12-06T12:54:07.856Z,13.44
2018-12-06T12:55:07.806Z,13.44
2018-12-06T12:56:07.784Z,13.49
2018-12-06T12:57:07.766Z,13.49
2018-12-06T12:58:07.754Z,13.45
2018-12-06T12:59:07.733Z,13.51
2018-12-06T13:00:07.734Z,13.55
2018-12-06T13:01:07.719Z,13.51
2018-12-06T13:02:07.689Z,13.48
2018-12-06T13:03:07.662Z,13.52
2018-12-06T13:04:07.638Z,13.49
2018-12-06T13:05:07.624Z,13.60
2018-12-06T13:06:07.626Z,13.51
2018-12-06T13:07:07.589Z,13.66
2018-12-06T13:08:07.573Z,13.55
2018-12-06T13:09:07.553Z,13.63
2018-12-06T13:10:07.531Z,13.60
2018-12-06T13:11:07.531Z,13.62